Time;durP1;ratioP1;P1;durP2;ratioP2;P2;SDS_P1;SDS_P2;PMS_P1;PMS_P2;Temp;Humidity;BMP_temperature;BMP_pressure;BME280_temperature;BME280_humidity;BME280_pressure;Samples;Min_cycle;Max_cycle;Signal;HPM_P1;HPM_P2
2021/12/29 00:00:54;;;;;;;2.22;1.00;;;21.00;85.70;;;;;;5072386;28;20435;-58
2021/12/29 00:03:22;;;;;;;2.88;0.50;;;21.10;85.90;;;;;;5075031;28;20074;-59
2021/12/29 00:05:49;;;;;;;2.28;1.00;;;21.10;85.90;;;;;;5075880;28;20024;-56
2021/12/29 00:08:17;;;;;;;1.90;0.50;;;21.10;85.60;;;;;;5075695;28;20024;-56
2021/12/29 00:10:46;;;;;;;2.28;0.65;;;21.10;85.30;;;;;;5075639;28;20068;-56
2021/12/29 00:13:14;;;;;;;2.58;0.85;;;21.20;86.00;;;;;;5076244;28;20036;-57
2021/12/29 00:15:41;;;;;;;2.63;0.70;;;21.10;85.70;;;;;;5075342;28;20100;-59
2021/12/29 00:18:09;;;;;;;1.75;0.65;;;21.10;85.40;;;;;;5075217;28;20025;-60
2021/12/29 00:20:36;;;;;;;1.67;0.70;;;21.20;85.70;;;;;;5075765;28;20437;-55
2021/12/29 00:23:07;;;;;;;3.45;1.20;;;21.20;85.50;;;;;;5074351;28;20392;-56
2021/12/29 00:25:35;;;;;;;1.67;0.60;;;21.30;85.80;;;;;;5075586;28;20052;-60
2021/12/29 00:28:02;;;;;;;1.83;0.63;;;21.30;85.60;;;;;;5075206;28;20036;-58
2021/12/29 00:30:29;;;;;;;1.55;0.60;;;21.30;85.60;;;;;;5075322;28;20032;-54
2021/12/29 00:32:58;;;;;;;2.20;0.90;;;21.30;85.50;;;;;;5075277;28;20035;-55
2021/12/29 00:35:26;;;;;;;2.55;0.80;;;21.30;85.50;;;;;;5075316;28;20020;-57
2021/12/29 00:37:53;;;;;;;2.00;0.82;;;21.30;85.20;;;;;;5075465;28;20046;-58
2021/12/29 00:40:21;;;;;;;1.67;0.73;;;21.40;85.30;;;;;;5075512;28;20475;-58
2021/12/29 00:42:48;;;;;;;2.95;1.15;;;21.40;85.00;;;;;;5075008;28;20037;-55
2021/12/29 00:45:15;;;;;;;1.52;0.60;;;21.40;85.10;;;;;;5075025;28;20387;-59
2021/12/29 00:47:43;;;;;;;1.75;0.60;;;21.50;85.40;;;;;;5074893;28;20024;-56
2021/12/29 00:50:15;;;;;;;1.23;0.70;;;21.50;85.10;;;;;;5074549;28;20035;-51
2021/12/29 00:52:47;;;;;;;1.88;0.70;;;21.50;84.80;;;;;;5074853;28;20379;-52
2021/12/29 00:55:16;;;;;;;2.40;1.13;;;21.60;85.20;;;;;;5075031;28;20068;-52
2021/12/29 00:57:44;;;;;;;3.22;0.77;;;21.60;85.20;;;;;;5075046;28;20024;-56
2021/12/29 01:00:16;;;;;;;2.30;0.73;;;21.70;84.70;;;;;;5074513;28;20054;-52
2021/12/29 01:02:44;;;;;;;2.15;0.80;;;21.70;84.40;;;;;;5074400;28;20491;-54
2021/12/29 01:05:12;;;;;;;1.23;0.70;;;21.70;84.30;;;;;;5074768;28;20041;-59
2021/12/29 01:07:39;;;;;;;2.30;0.55;;;21.80;84.40;;;;;;5073213;28;20071;-54
2021/12/29 01:10:07;;;;;;;1.30;0.60;;;21.80;84.40;;;;;;5074529;28;20120;-56
2021/12/29 01:12:34;;;;;;;0.57;0.50;;;21.90;83.90;;;;;;5074060;28;20438;-59
2021/12/29 01:15:03;;;;;;;1.25;0.70;;;21.90;83.80;;;;;;5073631;28;20451;-56
2021/12/29 01:17:31;;;;;;;1.98;0.60;;;22.00;83.80;;;;;;5074495;28;20069;-54
2021/12/29 01:19:59;;;;;;;2.25;0.70;;;22.00;83.60;;;;;;5074495;28;20029;-54
2021/12/29 01:22:27;;;;;;;2.17;0.52;;;22.00;83.50;;;;;;5074206;28;20494;-59
2021/12/29 01:24:54;;;;;;;1.05;0.60;;;22.10;82.70;;;;;;5074432;28;20032;-55
2021/12/29 01:27:21;;;;;;;3.72;1.05;;;22.10;83.20;;;;;;5074369;28;20025;-59
2021/12/29 01:29:49;;;;;;;2.40;0.70;;;22.10;83.00;;;;;;5074484;28;20049;-62
2021/12/29 01:32:16;;;;;;;1.48;0.63;;;22.20;82.90;;;;;;5073840;28;20410;-58
2021/12/29 01:34:44;;;;;;;1.25;0.70;;;22.30;82.80;;;;;;5073929;28;20025;-59
2021/12/29 01:37:11;;;;;;;2.63;0.70;;;22.30;82.40;;;;;;5074845;28;20442;-54
2021/12/29 01:39:38;;;;;;;4.80;1.10;;;22.40;82.50;;;;;;5073980;28;20028;-58
2021/12/29 01:42:06;;;;;;;1.92;0.85;;;22.40;82.20;;;;;;5074009;28;20028;-59
2021/12/29 01:44:33;;;;;;;4.25;0.60;;;22.50;81.90;;;;;;5073986;28;20021;-53
2021/12/29 01:47:01;;;;;;;1.58;0.70;;;22.50;81.90;;;;;;5073468;28;20028;-58
2021/12/29 01:49:28;;;;;;;1.65;0.70;;;22.60;81.30;;;;;;5073911;28;20028;-60
2021/12/29 01:52:09;;;;;;;1.40;0.60;;;22.60;80.70;;;;;;5074133;28;20031;-57
2021/12/29 01:54:37;;;;;;;3.85;1.10;;;22.70;80.40;;;;;;5074130;28;20044;-56
2021/12/29 01:57:10;;;;;;;1.50;0.45;;;22.70;80.70;;;;;;5073956;28;20050;-57
2021/12/29 01:59:37;;;;;;;4.20;0.73;;;22.80;80.30;;;;;;5073610;28;20028;-59
2021/12/29 02:02:05;;;;;;;1.75;0.52;;;22.80;80.10;;;;;;5072037;28;20416;-59
2021/12/29 02:04:33;;;;;;;2.30;1.25;;;22.80;80.00;;;;;;5073661;28;20029;-60
2021/12/29 02:07:00;;;;;;;2.08;0.88;;;22.90;79.60;;;;;;5073719;28;20093;-58
2021/12/29 02:09:28;;;;;;;1.33;0.73;;;23.00;78.90;;;;;;5073555;28;20028;-52
2021/12/29 02:11:55;;;;;;;0.80;0.50;;;23.00;78.90;;;;;;5073505;28;20108;-53
2021/12/29 02:14:23;;;;;;;2.97;1.48;;;23.10;78.60;;;;;;5073418;28;20024;-59
2021/12/29 02:16:51;;;;;;;2.53;0.80;;;23.20;78.70;;;;;;5073194;28;20112;-57
2021/12/29 02:19:18;;;;;;;1.00;0.50;;;23.20;78.70;;;;;;5073222;28;20479;-56
2021/12/29 02:21:56;;;;;;;2.00;0.60;;;23.20;78.10;;;;;;5073597;28;20497;-55
2021/12/29 02:24:35;;;;;;;2.25;0.73;;;23.20;76.70;;;;;;5073221;28;20443;-59
2021/12/29 02:27:04;;;;;;;1.40;0.60;;;23.20;77.40;;;;;;5072364;28;20103;-58
2021/12/29 02:29:33;;;;;;;1.23;0.60;;;23.20;77.00;;;;;;5073013;28;20020;-55
2021/12/29 02:32:01;;;;;;;1.60;0.63;;;23.30;78.00;;;;;;5072633;28;20029;-56
2021/12/29 02:34:29;;;;;;;1.60;0.82;;;23.30;77.30;;;;;;5072092;28;20104;-49
2021/12/29 02:36:59;;;;;;;2.05;0.70;;;23.30;77.80;;;;;;5073119;28;20017;-58
2021/12/29 02:39:26;;;;;;;1.90;0.68;;;23.30;78.40;;;;;;5073210;28;20076;-59
2021/12/29 02:41:55;;;;;;;2.15;0.73;;;23.40;77.70;;;;;;5072959;28;20064;-55
2021/12/29 02:44:28;;;;;;;0.85;0.52;;;23.40;77.10;;;;;;5073044;28;20056;-55
2021/12/29 02:46:58;;;;;;;2.15;0.55;;;23.40;78.40;;;;;;5073016;28;20032;-56
2021/12/29 02:49:27;;;;;;;1.20;0.65;;;23.50;77.40;;;;;;5072906;28;20475;-59
2021/12/29 02:51:55;;;;;;;1.42;0.60;;;23.50;77.90;;;;;;5072646;28;20032;-59
2021/12/29 02:54:23;;;;;;;0.88;0.65;;;23.50;77.70;;;;;;5072587;28;20548;-57
2021/12/29 02:56:55;;;;;;;0.65;0.50;;;23.50;77.60;;;;;;5073161;28;20332;-56
2021/12/29 02:59:26;;;;;;;1.58;0.52;;;23.50;77.30;;;;;;5073073;28;20025;-60
2021/12/29 03:01:53;;;;;;;1.30;0.60;;;23.50;77.60;;;;;;5072580;28;20336;-59
2021/12/29 03:04:21;;;;;;;1.13;0.65;;;23.40;77.70;;;;;;5072426;28;20269;-57
2021/12/29 03:06:49;;;;;;;1.48;0.60;;;23.50;78.10;;;;;;5072885;28;20040;-59
2021/12/29 03:09:16;;;;;;;1.40;0.40;;;23.50;78.00;;;;;;5072784;28;20029;-57
2021/12/29 03:11:46;;;;;;;1.50;0.85;;;23.40;78.40;;;;;;5072577;28;20032;-49
2021/12/29 03:14:14;;;;;;;2.13;0.60;;;23.40;78.60;;;;;;5072317;28;20021;-59
2021/12/29 03:16:42;;;;;;;2.15;0.93;;;23.40;78.80;;;;;;5072369;28;20077;-57
2021/12/29 03:19:10;;;;;;;2.83;0.77;;;23.30;78.10;;;;;;5073214;28;20111;-55
2021/12/29 03:21:38;;;;;;;0.98;0.47;;;23.30;79.30;;;;;;5072261;28;20032;-59
2021/12/29 03:24:06;;;;;;;0.40;0.32;;;23.20;78.90;;;;;;5072508;28;20090;-58
2021/12/29 03:26:34;;;;;;;1.30;0.50;;;23.20;78.30;;;;;;5072505;28;20027;-56
2021/12/29 03:29:02;;;;;;;0.55;0.38;;;23.30;79.10;;;;;;5072279;28;20056;-57
2021/12/29 03:31:32;;;;;;;1.75;0.50;;;23.20;79.40;;;;;;5072495;28;20453;-59
2021/12/29 03:34:00;;;;;;;2.08;0.70;;;23.20;79.20;;;;;;5072032;28;20020;-58
2021/12/29 03:36:28;;;;;;;1.85;0.52;;;23.20;79.30;;;;;;5073032;28;20020;-55
2021/12/29 03:38:56;;;;;;;1.75;0.50;;;23.30;79.10;;;;;;5076312;28;20017;-61
2021/12/29 03:41:24;;;;;;;0.90;0.50;;;23.20;79.60;;;;;;5076365;28;20475;-53
2021/12/29 03:43:51;;;;;;;0.95;0.45;;;23.20;79.10;;;;;;5076193;28;20025;-51
2021/12/29 03:46:19;;;;;;;1.92;0.82;;;23.30;80.20;;;;;;5076315;28;20021;-58
2021/12/29 03:48:48;;;;;;;1.35;0.60;;;23.30;79.90;;;;;;5076294;28;20038;-53
2021/12/29 03:51:16;;;;;;;1.42;0.45;;;23.30;80.10;;;;;;5076175;28;20040;-56
2021/12/29 03:53:43;;;;;;;1.15;0.50;;;23.30;79.50;;;;;;5076229;28;20052;-56
2021/12/29 03:56:11;;;;;;;1.05;0.40;;;23.40;79.70;;;;;;5075766;28;20025;-53
2021/12/29 03:58:38;;;;;;;1.10;0.43;;;23.40;79.30;;;;;;5075943;28;20013;-58
2021/12/29 04:01:09;;;;;;;1.83;0.70;;;23.40;79.30;;;;;;5075573;28;20040;-53
2021/12/29 04:03:37;;;;;;;0.50;0.40;;;23.40;79.40;;;;;;5076273;28;20021;-47
2021/12/29 04:06:05;;;;;;;0.63;0.47;;;23.50;79.50;;;;;;5074720;28;20024;-55
2021/12/29 04:08:33;;;;;;;1.80;0.70;;;23.50;79.80;;;;;;5075828;28;20446;-54
2021/12/29 04:11:00;;;;;;;2.45;1.00;;;23.50;79.20;;;;;;5074889;28;20067;-54
2021/12/29 04:13:28;;;;;;;2.10;0.60;;;23.60;79.00;;;;;;5075593;28;20024;-57
2021/12/29 04:15:55;;;;;;;1.65;0.63;;;23.60;79.10;;;;;;5075419;28;20050;-57
2021/12/29 04:18:26;;;;;;;1.45;0.57;;;23.70;78.10;;;;;;5075470;28;20144;-50
2021/12/29 04:21:00;;;;;;;1.52;0.60;;;23.70;77.90;;;;;;5075323;28;20467;-57
2021/12/29 04:23:33;;;;;;;1.63;0.50;;;23.70;77.70;;;;;;5075599;28;20045;-53
2021/12/29 04:26:03;;;;;;;0.60;0.30;;;23.70;78.80;;;;;;5075505;28;20035;-59
2021/12/29 04:28:31;;;;;;;2.67;0.43;;;23.70;78.90;;;;;;5075555;28;20025;-52
2021/12/29 04:31:05;;;;;;;1.58;0.57;;;23.70;77.80;;;;;;5075297;28;20039;-55
2021/12/29 04:33:33;;;;;;;5.50;0.52;;;23.70;78.40;;;;;;5075561;28;20043;-61
2021/12/29 04:36:01;;;;;;;0.73;0.20;;;23.70;78.40;;;;;;5075122;28;20105;-55
2021/12/29 04:38:28;;;;;;;2.47;0.93;;;23.70;78.90;;;;;;5075196;28;20032;-60
2021/12/29 04:40:57;;;;;;;1.17;0.75;;;23.70;78.70;;;;;;5075354;28;20040;-57
2021/12/29 04:43:25;;;;;;;2.45;0.57;;;23.70;78.50;;;;;;5075232;28;20124;-60
2021/12/29 04:45:55;;;;;;;0.82;0.40;;;23.70;79.00;;;;;;5075067;28;20098;-59
2021/12/29 04:48:24;;;;;;;0.75;0.40;;;23.60;79.10;;;;;;5074079;28;20070;-50
2021/12/29 04:51:05;;;;;;;1.42;0.50;;;23.60;78.70;;;;;;5075046;28;20040;-54
2021/12/29 04:53:34;;;;;;;0.70;0.52;;;23.60;78.30;;;;;;5074912;28;20491;-57
2021/12/29 04:56:01;;;;;;;1.65;0.45;;;23.50;79.60;;;;;;5074567;28;20036;-57
2021/12/29 04:58:29;;;;;;;2.80;0.60;;;23.50;79.30;;;;;;5074754;28;20047;-56
2021/12/29 05:00:56;;;;;;;1.83;0.80;;;23.50;78.20;;;;;;5075031;28;20328;-55
2021/12/29 05:03:25;;;;;;;2.05;0.57;;;23.50;79.60;;;;;;5073713;28;20481;-59
2021/12/29 05:08:24;;;;;;;1.15;0.55;;;23.50;78.20;;;;;;5074871;28;20021;-57
2021/12/29 05:08:46;;;;;;;0.93;0.50;;;23.50;79.30;;;;;;5074873;28;20366;-59
2021/12/29 05:11:15;;;;;;;1.77;0.77;;;23.50;80.10;;;;;;5074129;28;20040;-58
2021/12/29 05:13:45;;;;;;;1.42;0.50;;;23.40;80.20;;;;;;5073516;28;20044;-59
2021/12/29 05:16:13;;;;;;;1.27;0.60;;;23.40;79.60;;;;;;5074321;28;20059;-55
2021/12/29 05:18:40;;;;;;;1.67;0.60;;;23.40;79.30;;;;;;5074115;28;20017;-55
2021/12/29 05:21:09;;;;;;;1.27;0.60;;;23.40;79.70;;;;;;5074495;28;20122;-60
2021/12/29 05:23:37;;;;;;;1.45;0.60;;;23.40;79.40;;;;;;5074288;28;20048;-54
2021/12/29 05:26:05;;;;;;;2.00;0.50;;;23.40;80.80;;;;;;5074195;28;20474;-58
2021/12/29 05:28:33;;;;;;;0.90;0.47;;;23.40;80.10;;;;;;5074223;28;20051;-56
2021/12/29 05:31:00;;;;;;;3.40;0.93;;;23.40;79.70;;;;;;5073702;28;20459;-60
2021/12/29 05:33:28;;;;;;;1.40;0.75;;;23.40;79.20;;;;;;5074297;28;20083;-57
2021/12/29 05:35:56;;;;;;;1.42;0.60;;;23.40;78.30;;;;;;5074084;28;20098;-58
2021/12/29 05:38:23;;;;;;;0.80;0.38;;;23.40;78.70;;;;;;5073946;28;20483;-59
2021/12/29 05:40:52;;;;;;;1.80;0.70;;;23.50;80.40;;;;;;5074119;28;20033;-52
2021/12/29 05:43:20;;;;;;;1.02;0.40;;;23.40;78.20;;;;;;5074054;28;20410;-56
2021/12/29 05:45:49;;;;;;;1.13;0.60;;;23.50;80.00;;;;;;5073726;28;20032;-59
2021/12/29 05:48:16;;;;;;;0.40;0.30;;;23.50;78.60;;;;;;5073305;28;20025;-58
2021/12/29 05:50:44;;;;;;;1.70;0.50;;;23.50;78.10;;;;;;5072343;28;20028;-51
2021/12/29 05:53:11;;;;;;;1.02;0.70;;;23.50;79.50;;;;;;5073437;28;20440;-60
2021/12/29 05:55:41;;;;;;;1.15;0.40;;;23.50;77.10;;;;;;5073811;28;20056;-54
2021/12/29 05:58:10;;;;;;;1.05;0.32;;;23.50;78.20;;;;;;5073515;28;20073;-59
2021/12/29 06:00:39;;;;;;;0.77;0.45;;;23.50;78.70;;;;;;5073302;28;20035;-58
2021/12/29 06:03:08;;;;;;;1.27;0.73;;;23.50;80.60;;;;;;5073529;28;20467;-58
2021/12/29 06:05:42;;;;;;;1.20;0.47;;;23.50;80.30;;;;;;5073040;28;20063;-55
2021/12/29 06:08:10;;;;;;;0.50;0.40;;;23.50;80.80;;;;;;5073367;28;20498;-57
2021/12/29 06:10:37;;;;;;;0.77;0.47;;;23.50;78.10;;;;;;5073256;28;20033;-53
2021/12/29 06:13:05;;;;;;;1.38;0.60;;;23.60;80.50;;;;;;5073495;28;20162;-60
2021/12/29 06:15:32;;;;;;;1.73;0.82;;;23.50;78.90;;;;;;5055430;28;20047;-53
2021/12/29 06:18:00;;;;;;;1.08;0.60;;;23.60;78.10;;;;;;5072815;28;20493;-58
2021/12/29 06:20:27;;;;;;;0.85;0.50;;;23.60;77.30;;;;;;5071916;28;20355;-61
2021/12/29 06:22:55;;;;;;;1.38;0.30;;;23.70;78.00;;;;;;5072916;28;20035;-56
2021/12/29 06:25:23;;;;;;;1.20;0.50;;;23.60;79.80;;;;;;5073569;28;20020;-57
2021/12/29 06:27:53;;;;;;;1.13;0.50;;;23.60;79.00;;;;;;5073160;28;20386;-60
2021/12/29 06:30:20;;;;;;;1.35;0.30;;;23.60;79.80;;;;;;5072964;28;20491;-60
2021/12/29 06:32:48;;;;;;;0.70;0.40;;;23.50;80.00;;;;;;5073120;28;20028;-59
2021/12/29 06:35:15;;;;;;;0.45;0.30;;;23.50;80.60;;;;;;5072857;28;20032;-59
2021/12/29 06:37:46;;;;;;;1.23;0.65;;;23.50;79.00;;;;;;5072603;28;20028;-58
2021/12/29 06:40:14;;;;;;;1.00;0.47;;;23.50;79.60;;;;;;5072453;28;20021;-56
2021/12/29 06:42:42;;;;;;;1.25;0.68;;;23.50;80.30;;;;;;5072886;28;20041;-58
2021/12/29 06:45:10;;;;;;;1.90;0.40;;;23.50;80.10;;;;;;5071654;28;20020;-58
2021/12/29 06:47:38;;;;;;;0.70;0.30;;;23.50;78.80;;;;;;5072833;28;20043;-57
2021/12/29 06:50:07;;;;;;;1.65;0.47;;;23.60;80.30;;;;;;5072714;28;20039;-60
2021/12/29 06:52:34;;;;;;;0.50;0.38;;;23.60;80.50;;;;;;5073107;28;20035;-58
2021/12/29 06:55:02;;;;;;;0.85;0.40;;;23.50;80.50;;;;;;5072984;28;20032;-59
2021/12/29 06:57:29;;;;;;;1.40;0.50;;;23.50;80.30;;;;;;5073016;28;20031;-60
2021/12/29 07:00:01;;;;;;;0.88;0.20;;;23.50;80.60;;;;;;5072539;28;20067;-52
2021/12/29 07:02:28;;;;;;;0.88;0.40;;;23.50;80.30;;;;;;5071490;28;20028;-55
2021/12/29 07:04:56;;;;;;;1.65;0.50;;;23.50;79.50;;;;;;5072691;28;20107;-57
2021/12/29 07:07:23;;;;;;;3.22;0.88;;;23.50;80.50;;;;;;5072561;28;20021;-58
2021/12/29 07:09:51;;;;;;;0.55;0.40;;;23.50;80.20;;;;;;5072724;28;20100;-58
2021/12/29 07:12:19;;;;;;;1.17;0.50;;;23.50;79.70;;;;;;5072114;28;20033;-57
2021/12/29 07:14:47;;;;;;;1.73;0.47;;;23.50;80.60;;;;;;5072728;28;20080;-52
2021/12/29 07:17:14;;;;;;;2.45;0.30;;;23.50;80.90;;;;;;5072441;28;20055;-60
2021/12/29 07:19:42;;;;;;;1.50;0.60;;;23.40;80.10;;;;;;5072565;28;20074;-57
2021/12/29 07:22:09;;;;;;;1.73;0.50;;;23.40;81.00;;;;;;5072803;28;20025;-58
2021/12/29 07:24:37;;;;;;;0.80;0.55;;;23.40;80.90;;;;;;5072852;28;20035;-59
2021/12/29 07:27:05;;;;;;;1.00;0.50;;;23.40;80.60;;;;;;5071361;28;20051;-49
2021/12/29 07:29:32;;;;;;;0.95;0.68;;;23.40;80.90;;;;;;5072258;28;20021;-52
2021/12/29 07:32:02;;;;;;;1.55;0.70;;;23.30;79.90;;;;;;5072676;28;20059;-54
2021/12/29 07:34:29;;;;;;;0.95;0.63;;;23.30;80.60;;;;;;5072767;28;20032;-56
2021/12/29 07:36:57;;;;;;;0.60;0.38;;;23.20;81.40;;;;;;5072638;28;20027;-54
2021/12/29 07:39:25;;;;;;;1.95;0.55;;;23.20;80.80;;;;;;5072517;28;20021;-58
2021/12/29 07:41:53;;;;;;;4.72;0.80;;;23.20;81.30;;;;;;5072250;28;20040;-52
2021/12/29 07:44:21;;;;;;;1.65;0.30;;;23.20;81.70;;;;;;5072469;28;20025;-58
2021/12/29 07:46:53;;;;;;;1.35;0.65;;;23.20;80.90;;;;;;5072578;28;20032;-56
2021/12/29 07:49:22;;;;;;;1.60;0.50;;;23.20;81.50;;;;;;5072348;28;20485;-61
2021/12/29 07:51:50;;;;;;;2.58;0.85;;;23.10;81.40;;;;;;5071959;28;20029;-60
2021/12/29 07:54:18;;;;;;;1.10;0.35;;;23.10;81.60;;;;;;5070929;28;20131;-59
2021/12/29 07:56:46;;;;;;;0.77;0.43;;;23.10;82.20;;;;;;5072403;28;20028;-54
2021/12/29 07:59:14;;;;;;;1.10;0.55;;;23.10;82.30;;;;;;5072725;28;20031;-58
2021/12/29 08:01:43;;;;;;;0.52;0.40;;;23.10;82.50;;;;;;5071539;28;20105;-57
2021/12/29 08:04:11;;;;;;;0.82;0.30;;;23.10;82.90;;;;;;5071896;28;20506;-59
2021/12/29 08:06:39;;;;;;;1.05;0.40;;;23.00;82.00;;;;;;5072633;28;20027;-58
2021/12/29 08:09:11;;;;;;;1.45;0.50;;;23.00;83.00;;;;;;5072861;28;20035;-57
2021/12/29 08:11:42;;;;;;;1.65;0.40;;;23.00;82.00;;;;;;5072732;28;20086;-59
2021/12/29 08:14:09;;;;;;;1.57;0.33;;;23.00;83.20;;;;;;5072220;28;20024;-54
2021/12/29 08:16:37;;;;;;;2.45;0.50;;;23.00;82.80;;;;;;5072041;28;20534;-60
2021/12/29 08:19:05;;;;;;;0.98;0.30;;;23.00;83.40;;;;;;5071100;28;20043;-58
2021/12/29 08:21:33;;;;;;;0.35;0.30;;;22.90;82.80;;;;;;5072371;28;20033;-59
2021/12/29 08:24:00;;;;;;;0.28;0.20;;;23.00;83.30;;;;;;5074271;28;20056;-62
2021/12/29 08:26:30;;;;;;;0.90;0.30;;;22.90;83.30;;;;;;5074491;28;20024;-52
2021/12/29 08:28:58;;;;;;;1.08;0.50;;;22.90;83.30;;;;;;5075921;28;20024;-56
2021/12/29 08:31:26;;;;;;;1.42;0.47;;;22.90;83.30;;;;;;5075391;28;20078;-60
2021/12/29 08:33:57;;;;;;;0.77;0.32;;;22.90;83.60;;;;;;5075103;28;20074;-53
2021/12/29 08:36:24;;;;;;;1.35;0.40;;;22.90;83.50;;;;;;5075546;28;20028;-58
2021/12/29 08:38:52;;;;;;;0.93;0.68;;;22.90;83.40;;;;;;5075918;28;20091;-58
2021/12/29 08:41:20;;;;;;;0.40;0.40;;;22.90;83.70;;;;;;5075936;28;20025;-53
2021/12/29 08:43:47;;;;;;;0.73;0.35;;;22.90;83.60;;;;;;5074384;28;20029;-60
2021/12/29 08:46:19;;;;;;;0.95;0.35;;;22.90;83.90;;;;;;5074059;28;20029;-57
2021/12/29 08:48:47;;;;;;;0.90;0.40;;;22.90;83.90;;;;;;5075623;28;20027;-59
2021/12/29 08:51:20;;;;;;;1.85;0.50;;;22.80;83.90;;;;;;5075731;28;20029;-57
2021/12/29 08:53:50;;;;;;;1.05;0.20;;;22.90;84.00;;;;;;5074328;28;20040;-56
2021/12/29 08:56:17;;;;;;;1.35;0.47;;;22.80;84.00;;;;;;5075362;28;20082;-54
2021/12/29 08:58:46;;;;;;;0.20;0.20;;;22.80;84.00;;;;;;5075605;28;20024;-60
2021/12/29 09:01:14;;;;;;;0.85;0.55;;;22.80;83.40;;;;;;5075734;28;20111;-57
2021/12/29 09:03:42;;;;;;;0.65;0.38;;;22.80;84.10;;;;;;5075386;28;20024;-55
2021/12/29 09:06:10;;;;;;;0.28;0.17;;;22.80;84.30;;;;;;5075548;28;20086;-55
2021/12/29 09:08:37;;;;;;;1.48;0.40;;;22.70;84.00;;;;;;5075098;28;20044;-62
2021/12/29 09:11:05;;;;;;;1.50;0.30;;;22.70;84.20;;;;;;5075303;28;20064;-62
2021/12/29 09:13:33;;;;;;;0.73;0.30;;;22.70;84.40;;;;;;5075064;28;20020;-57
2021/12/29 09:16:01;;;;;;;0.38;0.30;;;22.70;84.40;;;;;;5074762;28;20036;-54
2021/12/29 09:18:32;;;;;;;0.65;0.20;;;22.70;84.50;;;;;;5075504;28;20028;-59
2021/12/29 09:21:14;;;;;;;1.00;0.45;;;22.70;84.60;;;;;;5075076;28;20462;-56
2021/12/29 09:23:42;;;;;;;0.45;0.20;;;22.70;84.40;;;;;;5075061;28;20016;-61
2021/12/29 09:26:12;;;;;;;0.70;0.32;;;22.60;84.70;;;;;;5074684;28;20033;-61
2021/12/29 09:28:41;;;;;;;1.75;0.63;;;22.60;84.80;;;;;;5074444;28;20024;-60
2021/12/29 09:31:09;;;;;;;1.20;0.50;;;22.60;84.80;;;;;;5074601;28;20449;-56
2021/12/29 09:33:39;;;;;;;0.57;0.40;;;22.60;84.70;;;;;;5074652;28;20025;-61
2021/12/29 09:36:07;;;;;;;0.63;0.30;;;22.60;84.90;;;;;;5072806;28;20024;-58
2021/12/29 09:38:39;;;;;;;1.05;0.40;;;22.60;85.00;;;;;;5074572;28;20161;-60
2021/12/29 09:41:13;;;;;;;0.68;0.47;;;22.60;84.80;;;;;;5074591;28;20383;-60
2021/12/29 09:43:41;;;;;;;1.33;0.40;;;22.50;85.00;;;;;;5074555;28;20386;-56
2021/12/29 09:46:12;;;;;;;0.95;0.52;;;22.50;85.00;;;;;;5074482;28;20051;-59
2021/12/29 09:48:40;;;;;;;1.57;0.60;;;22.50;85.00;;;;;;5074972;28;20118;-56
2021/12/29 09:51:13;;;;;;;1.00;0.30;;;22.50;85.00;;;;;;5074713;28;20040;-60
2021/12/29 09:53:43;;;;;;;0.88;0.47;;;22.50;85.10;;;;;;5074519;28;20041;-58
2021/12/29 09:56:11;;;;;;;0.70;0.40;;;22.50;85.00;;;;;;5074346;28;20031;-58
2021/12/29 09:58:42;;;;;;;0.57;0.30;;;22.50;85.10;;;;;;5073664;28;20550;-57
2021/12/29 10:01:14;;;;;;;0.73;0.30;;;22.50;85.00;;;;;;5074247;28;20451;-61
2021/12/29 10:03:42;;;;;;;1.13;0.52;;;22.50;84.90;;;;;;5074157;28;20559;-56
2021/12/29 10:06:11;;;;;;;0.63;0.30;;;22.40;85.10;;;;;;5073801;28;20040;-61
2021/12/29 10:08:41;;;;;;;1.55;0.60;;;22.40;84.90;;;;;;5073994;28;20029;-55
2021/12/29 10:11:13;;;;;;;1.08;0.40;;;22.40;85.10;;;;;;5073756;28;20033;-60
2021/12/29 10:13:43;;;;;;;1.03;0.40;;;22.40;85.00;;;;;;5073647;28;20027;-58
2021/12/29 10:16:16;;;;;;;0.38;0.28;;;22.40;84.90;;;;;;5073548;28;20253;-61
2021/12/29 10:18:45;;;;;;;0.95;0.50;;;22.40;85.00;;;;;;5073965;28;20070;-57
2021/12/29 10:21:15;;;;;;;0.47;0.35;;;22.30;84.90;;;;;;5073774;28;20024;-59
2021/12/29 10:23:49;;;;;;;1.90;0.40;;;22.30;84.90;;;;;;5073690;28;20084;-60
2021/12/29 10:26:20;;;;;;;1.45;0.88;;;22.30;85.00;;;;;;5073235;28;20451;-59
2021/12/29 10:28:53;;;;;;;0.32;0.30;;;22.30;85.00;;;;;;5073415;28;20029;-57
2021/12/29 10:31:31;;;;;;;0.60;0.47;;;22.30;84.90;;;;;;5073620;28;20040;-56
2021/12/29 10:34:02;;;;;;;0.60;0.50;;;22.30;85.00;;;;;;5073382;28;20099;-60
2021/12/29 10:36:44;;;;;;;1.00;0.40;;;22.30;85.10;;;;;;5073319;28;20112;-56
2021/12/29 10:39:33;;;;;;;0.40;0.30;;;22.30;85.00;;;;;;5073378;28;20513;-60
2021/12/29 10:42:05;;;;;;;2.05;0.60;;;22.30;85.10;;;;;;5071782;28;20105;-58
2021/12/29 10:44:43;;;;;;;1.42;0.50;;;22.20;85.00;;;;;;5073141;28;20030;-54
2021/12/29 10:47:31;;;;;;;1.00;0.40;;;22.20;85.00;;;;;;5072591;28;20110;-60
2021/12/29 10:50:08;;;;;;;0.52;0.30;;;22.20;85.10;;;;;;5072936;28;20548;-58
2021/12/29 10:52:43;;;;;;;1.40;0.45;;;22.10;84.80;;;;;;5072969;28;20051;-55
2021/12/29 10:55:35;;;;;;;0.63;0.40;;;22.20;85.10;;;;;;5072694;28;20041;-55
2021/12/29 10:58:09;;;;;;;1.25;0.52;;;22.20;85.20;;;;;;5072500;28;20099;-57
2021/12/29 11:00:39;;;;;;;1.02;0.40;;;22.10;85.00;;;;;;5073218;28;20028;-59
2021/12/29 11:03:21;;;;;;;0.47;0.40;;;22.10;85.10;;;;;;5073097;28;20035;-58
2021/12/29 11:05:58;;;;;;;0.60;0.30;;;22.10;85.10;;;;;;5073225;28;20033;-53
2021/12/29 11:08:49;;;;;;;1.08;0.52;;;22.10;85.10;;;;;;5072196;28;20028;-57
2021/12/29 11:11:18;;;;;;;0.75;0.50;;;22.00;84.90;;;;;;5064883;28;20040;-53
2021/12/29 11:13:46;;;;;;;1.15;0.50;;;22.00;85.00;;;;;;5071511;28;20249;-56
2021/12/29 11:16:13;;;;;;;0.93;0.30;;;22.00;85.00;;;;;;5072686;28;20028;-59
2021/12/29 11:18:51;;;;;;;0.95;0.50;;;22.00;85.00;;;;;;5071707;28;20028;-58
2021/12/29 11:21:36;;;;;;;1.75;0.50;;;22.00;84.90;;;;;;5073107;28;20094;-59
2021/12/29 11:24:20;;;;;;;1.30;0.60;;;22.00;84.90;;;;;;5072437;28;20370;-58
2021/12/29 11:26:51;;;;;;;0.52;0.35;;;22.00;84.90;;;;;;5072878;28;20090;-59
2021/12/29 11:29:21;;;;;;;0.90;0.40;;;22.00;84.80;;;;;;5071382;28;20086;-58
2021/12/29 11:31:51;;;;;;;0.52;0.38;;;22.00;84.90;;;;;;5072785;28;20464;-59
2021/12/29 11:34:27;;;;;;;0.65;0.50;;;22.00;85.00;;;;;;5072731;28;20037;-58
2021/12/29 11:37:06;;;;;;;0.82;0.40;;;22.00;84.90;;;;;;5072736;28;20057;-61
2021/12/29 11:39:38;;;;;;;1.02;0.40;;;21.90;84.80;;;;;;5071655;28;20027;-58
2021/12/29 11:42:05;;;;;;;1.98;0.65;;;21.90;84.80;;;;;;5072713;28;20463;-60
2021/12/29 11:44:34;;;;;;;1.30;0.40;;;21.90;84.90;;;;;;5071551;28;20031;-58
2021/12/29 11:47:02;;;;;;;0.60;0.32;;;21.90;84.80;;;;;;5072734;28;20027;-60
2021/12/29 11:49:30;;;;;;;1.17;0.40;;;21.90;84.90;;;;;;5072566;28;20086;-57
2021/12/29 11:52:10;;;;;;;1.35;0.52;;;21.90;84.90;;;;;;5072220;28;20037;-56
2021/12/29 11:54:58;;;;;;;0.93;0.43;;;21.90;84.90;;;;;;5072426;28;20049;-60
2021/12/29 11:57:27;;;;;;;0.30;0.30;;;21.80;84.90;;;;;;5072401;28;20108;-59
2021/12/29 12:00:10;;;;;;;0.28;0.28;;;21.90;84.90;;;;;;5076047;28;20019;-59
2021/12/29 12:02:39;;;;;;;1.33;0.68;;;21.80;84.90;;;;;;5076471;28;20028;-59
2021/12/29 12:05:08;;;;;;;1.15;0.40;;;21.80;84.90;;;;;;5076150;28;20031;-59
2021/12/29 12:07:39;;;;;;;1.05;0.50;;;21.80;84.80;;;;;;5076128;28;20088;-60
2021/12/29 12:10:12;;;;;;;0.83;0.33;;;21.80;85.50;;;;;;5075833;28;20028;-57
2021/12/29 12:12:52;;;;;;;1.27;0.57;;;21.80;84.80;;;;;;5076184;28;20116;-58
2021/12/29 12:15:31;;;;;;;1.55;0.40;;;21.80;84.90;;;;;;5075160;28;20056;-58
2021/12/29 12:18:07;;;;;;;1.10;0.70;;;21.70;84.90;;;;;;5076216;28;20021;-59
2021/12/29 12:20:49;;;;;;;1.02;0.43;;;21.70;84.80;;;;;;5076157;28;20020;-59
2021/12/29 12:23:30;;;;;;;0.75;0.43;;;21.70;84.80;;;;;;5074897;28;20051;-55
2021/12/29 12:26:11;;;;;;;0.45;0.40;;;21.70;84.90;;;;;;5076030;28;20025;-58
2021/12/29 12:28:49;;;;;;;1.15;0.75;;;21.70;84.90;;;;;;5075771;28;20028;-58
2021/12/29 12:31:26;;;;;;;1.08;0.60;;;21.70;84.90;;;;;;5075677;28;20032;-59
2021/12/29 12:33:54;;;;;;;0.82;0.70;;;21.70;84.90;;;;;;5075907;28;20086;-59
2021/12/29 12:36:32;;;;;;;0.98;0.55;;;21.60;84.80;;;;;;5075473;28;20475;-57
2021/12/29 12:39:14;;;;;;;0.35;0.35;;;21.70;84.90;;;;;;5075763;28;20029;-55
2021/12/29 12:41:45;;;;;;;1.63;0.68;;;21.60;84.90;;;;;;5075778;28;20028;-59
2021/12/29 12:44:13;;;;;;;0.82;0.50;;;21.60;84.90;;;;;;5075606;28;20053;-60
2021/12/29 12:46:44;;;;;;;1.17;0.50;;;21.60;84.90;;;;;;5075704;28;20052;-59
2021/12/29 12:49:14;;;;;;;0.45;0.38;;;21.60;84.90;;;;;;5075610;28;20032;-57
2021/12/29 12:51:42;;;;;;;0.73;0.60;;;21.60;85.50;;;;;;5075018;28;20040;-60
2021/12/29 12:54:21;;;;;;;0.98;0.50;;;21.60;84.90;;;;;;5074972;28;20098;-58
2021/12/29 12:56:49;;;;;;;0.82;0.63;;;21.60;85.00;;;;;;5075208;28;20059;-60
2021/12/29 12:59:17;;;;;;;1.90;1.00;;;21.50;84.90;;;;;;5075380;28;20419;-59
2021/12/29 13:01:47;;;;;;;1.40;0.57;;;21.50;85.00;;;;;;5075239;28;20025;-58